sensor_id;sensor_type;location;lat;lon;timestamp;P1;durP1;ratioP1;P2;durP2;ratioP2
23206;SDS011;11773;52.570;13.052;2023-03-01T00:01:58;1.30;;;1.20;;
23206;SDS011;11773;52.570;13.052;2023-03-01T00:04:28;1.93;;;1.43;;
23206;SDS011;11773;52.570;13.052;2023-03-01T00:06:57;1.70;;;1.50;;
23206;SDS011;11773;52.570;13.052;2023-03-01T00:09:27;1.73;;;1.20;;
23206;SDS011;11773;52.570;13.052;2023-03-01T00:11:56;1.53;;;1.43;;
23206;SDS011;11773;52.570;13.052;2023-03-01T00:14:25;1.70;;;1.30;;
23206;SDS011;11773;52.570;13.052;2023-03-01T00:16:56;1.37;;;1.27;;
23206;SDS011;11773;52.570;13.052;2023-03-01T00:19:25;1.27;;;1.13;;
23206;SDS011;11773;52.570;13.052;2023-03-01T00:21:55;2.20;;;1.70;;
23206;SDS011;11773;52.570;13.052;2023-03-01T00:24:24;1.00;;;1.00;;
23206;SDS011;11773;52.570;13.052;2023-03-01T00:26:54;1.40;;;1.00;;
23206;SDS011;11773;52.570;13.052;2023-03-01T00:29:24;1.67;;;1.43;;
23206;SDS011;11773;52.570;13.052;2023-03-01T00:31:54;1.30;;;1.20;;
23206;SDS011;11773;52.570;13.052;2023-03-01T00:34:23;1.23;;;1.10;;
23206;SDS011;11773;52.570;13.052;2023-03-01T00:36:52;1.60;;;1.17;;
23206;SDS011;11773;52.570;13.052;2023-03-01T00:39:22;1.27;;;1.17;;
23206;SDS011;11773;52.570;13.052;2023-03-01T00:41:51;1.30;;;1.17;;
23206;SDS011;11773;52.570;13.052;2023-03-01T00:44:21;1.33;;;1.20;;
23206;SDS011;11773;52.570;13.052;2023-03-01T00:46:50;1.53;;;1.20;;
23206;SDS011;11773;52.570;13.052;2023-03-01T00:49:20;1.80;;;1.43;;
23206;SDS011;11773;52.570;13.052;2023-03-01T00:51:51;1.23;;;1.00;;
23206;SDS011;11773;52.570;13.052;2023-03-01T00:54:21;1.17;;;0.87;;
23206;SDS011;11773;52.570;13.052;2023-03-01T00:56:50;1.97;;;1.17;;
23206;SDS011;11773;52.570;13.052;2023-03-01T00:59:19;1.30;;;0.90;;
23206;SDS011;11773;52.570;13.052;2023-03-01T01:01:49;0.70;;;0.70;;
23206;SDS011;11773;52.570;13.052;2023-03-01T01:04:18;1.27;;;1.10;;
23206;SDS011;11773;52.570;13.052;2023-03-01T01:06:49;1.23;;;1.10;;
23206;SDS011;11773;52.570;13.052;2023-03-01T01:09:18;1.60;;;1.13;;
23206;SDS011;11773;52.570;13.052;2023-03-01T01:11:49;1.00;;;0.90;;
23206;SDS011;11773;52.570;13.052;2023-03-01T01:14:19;0.70;;;0.70;;
23206;SDS011;11773;52.570;13.052;2023-03-01T01:16:49;1.13;;;0.93;;
23206;SDS011;11773;52.570;13.052;2023-03-01T01:19:18;0.70;;;0.70;;
23206;SDS011;11773;52.570;13.052;2023-03-01T01:21:48;0.90;;;0.90;;
23206;SDS011;11773;52.570;13.052;2023-03-01T01:24:18;0.93;;;0.93;;
23206;SDS011;11773;52.570;13.052;2023-03-01T01:26:48;1.20;;;1.10;;
23206;SDS011;11773;52.570;13.052;2023-03-01T01:29:17;1.30;;;1.03;;
23206;SDS011;11773;52.570;13.052;2023-03-01T01:31:47;1.20;;;1.10;;
23206;SDS011;11773;52.570;13.052;2023-03-01T01:34:17;1.80;;;1.17;;
23206;SDS011;11773;52.570;13.052;2023-03-01T01:36:49;1.20;;;1.10;;
23206;SDS011;11773;52.570;13.052;2023-03-01T01:39:21;1.17;;;1.07;;
23206;SDS011;11773;52.570;13.052;2023-03-01T01:41:51;0.60;;;0.60;;
23206;SDS011;11773;52.570;13.052;2023-03-01T01:44:24;0.77;;;0.77;;
23206;SDS011;11773;52.570;13.052;2023-03-01T01:47:03;1.20;;;0.80;;
23206;SDS011;11773;52.570;13.052;2023-03-01T01:49:52;0.80;;;0.70;;
23206;SDS011;11773;52.570;13.052;2023-03-01T01:52:24;0.87;;;0.63;;
23206;SDS011;11773;52.570;13.052;2023-03-01T01:54:57;1.10;;;0.70;;
23206;SDS011;11773;52.570;13.052;2023-03-01T01:57:54;1.23;;;0.90;;
23206;SDS011;11773;52.570;13.052;2023-03-01T02:00:30;0.70;;;0.60;;
23206;SDS011;11773;52.570;13.052;2023-03-01T02:03:01;0.50;;;0.40;;
23206;SDS011;11773;52.570;13.052;2023-03-01T02:08:35;0.67;;;0.67;;
23206;SDS011;11773;52.570;13.052;2023-03-01T02:11:08;1.20;;;0.90;;
23206;SDS011;11773;52.570;13.052;2023-03-01T02:13:41;0.83;;;0.80;;
23206;SDS011;11773;52.570;13.052;2023-03-01T02:16:13;1.30;;;0.87;;
23206;SDS011;11773;52.570;13.052;2023-03-01T02:18:44;0.83;;;0.70;;
23206;SDS011;11773;52.570;13.052;2023-03-01T02:21:17;1.07;;;0.97;;
23206;SDS011;11773;52.570;13.052;2023-03-01T02:27:20;0.80;;;0.70;;
23206;SDS011;11773;52.570;13.052;2023-03-01T02:29:54;0.90;;;0.90;;
23206;SDS011;11773;52.570;13.052;2023-03-01T02:36:00;1.47;;;1.13;;
23206;SDS011;11773;52.570;13.052;2023-03-01T02:38:33;1.50;;;1.30;;
23206;SDS011;11773;52.570;13.052;2023-03-01T02:41:02;0.97;;;0.80;;
23206;SDS011;11773;52.570;13.052;2023-03-01T02:43:34;0.90;;;0.80;;
23206;SDS011;11773;52.570;13.052;2023-03-01T02:46:06;0.63;;;0.60;;
23206;SDS011;11773;52.570;13.052;2023-03-01T02:48:43;0.97;;;0.87;;
23206;SDS011;11773;52.570;13.052;2023-03-01T02:54:25;1.20;;;1.10;;
23206;SDS011;11773;52.570;13.052;2023-03-01T02:57:18;1.60;;;1.17;;
23206;SDS011;11773;52.570;13.052;2023-03-01T02:59:49;2.30;;;1.30;;
23206;SDS011;11773;52.570;13.052;2023-03-01T03:02:23;1.27;;;1.17;;
23206;SDS011;11773;52.570;13.052;2023-03-01T03:05:07;1.20;;;1.10;;
23206;SDS011;11773;52.570;13.052;2023-03-01T03:07:48;1.20;;;1.10;;
23206;SDS011;11773;52.570;13.052;2023-03-01T03:10:21;1.00;;;0.90;;
23206;SDS011;11773;52.570;13.052;2023-03-01T03:13:00;1.00;;;0.90;;
23206;SDS011;11773;52.570;13.052;2023-03-01T03:15:32;1.00;;;0.87;;
23206;SDS011;11773;52.570;13.052;2023-03-01T03:18:07;0.60;;;0.60;;
23206;SDS011;11773;52.570;13.052;2023-03-01T03:20:40;0.80;;;0.80;;
23206;SDS011;11773;52.570;13.052;2023-03-01T03:23:11;0.80;;;0.80;;
23206;SDS011;11773;52.570;13.052;2023-03-01T03:25:41;1.13;;;1.03;;
23206;SDS011;11773;52.570;13.052;2023-03-01T03:28:10;0.80;;;0.80;;
23206;SDS011;11773;52.570;13.052;2023-03-01T03:30:40;0.83;;;0.83;;
23206;SDS011;11773;52.570;13.052;2023-03-01T03:33:11;1.30;;;1.03;;
23206;SDS011;11773;52.570;13.052;2023-03-01T03:35:42;1.10;;;1.00;;
23206;SDS011;11773;52.570;13.052;2023-03-01T03:38:16;1.80;;;1.20;;
23206;SDS011;11773;52.570;13.052;2023-03-01T03:41:00;1.57;;;1.00;;
23206;SDS011;11773;52.570;13.052;2023-03-01T03:43:22;1.20;;;1.10;;
23206;SDS011;11773;52.570;13.052;2023-03-01T03:45:52;1.43;;;1.30;;
23206;SDS011;11773;52.570;13.052;2023-03-01T03:48:23;1.77;;;1.60;;
23206;SDS011;11773;52.570;13.052;2023-03-01T03:50:54;2.93;;;1.80;;
23206;SDS011;11773;52.570;13.052;2023-03-01T03:53:25;1.70;;;1.50;;
23206;SDS011;11773;52.570;13.052;2023-03-01T03:55:56;1.63;;;1.20;;
23206;SDS011;11773;52.570;13.052;2023-03-01T03:58:26;1.83;;;1.70;;
23206;SDS011;11773;52.570;13.052;2023-03-01T04:00:56;1.50;;;1.30;;
23206;SDS011;11773;52.570;13.052;2023-03-01T04:03:26;1.67;;;1.40;;
23206;SDS011;11773;52.570;13.052;2023-03-01T04:05:59;2.13;;;1.40;;
23206;SDS011;11773;52.570;13.052;2023-03-01T04:08:31;1.53;;;1.30;;
23206;SDS011;11773;52.570;13.052;2023-03-01T04:11:01;1.50;;;1.40;;
23206;SDS011;11773;52.570;13.052;2023-03-01T04:13:52;1.73;;;1.40;;
23206;SDS011;11773;52.570;13.052;2023-03-01T04:16:24;1.40;;;1.30;;
23206;SDS011;11773;52.570;13.052;2023-03-01T04:18:54;1.53;;;1.43;;
23206;SDS011;11773;52.570;13.052;2023-03-01T04:21:25;1.40;;;1.30;;
23206;SDS011;11773;52.570;13.052;2023-03-01T04:23:55;2.07;;;1.50;;
23206;SDS011;11773;52.570;13.052;2023-03-01T04:26:24;2.37;;;1.60;;
23206;SDS011;11773;52.570;13.052;2023-03-01T04:28:54;1.60;;;1.47;;
23206;SDS011;11773;52.570;13.052;2023-03-01T04:31:23;1.97;;;1.70;;
23206;SDS011;11773;52.570;13.052;2023-03-01T04:33:54;3.53;;;2.10;;
23206;SDS011;11773;52.570;13.052;2023-03-01T04:36:25;2.27;;;2.07;;
23206;SDS011;11773;52.570;13.052;2023-03-01T04:38:57;1.87;;;1.73;;
23206;SDS011;11773;52.570;13.052;2023-03-01T04:41:27;1.77;;;1.50;;
23206;SDS011;11773;52.570;13.052;2023-03-01T04:43:56;2.53;;;1.80;;
23206;SDS011;11773;52.570;13.052;2023-03-01T04:46:27;1.70;;;1.60;;
23206;SDS011;11773;52.570;13.052;2023-03-01T04:48:57;1.60;;;1.40;;
23206;SDS011;11773;52.570;13.052;2023-03-01T04:51:26;1.83;;;1.50;;
23206;SDS011;11773;52.570;13.052;2023-03-01T04:53:56;1.93;;;1.73;;
23206;SDS011;11773;52.570;13.052;2023-03-01T04:56:27;1.93;;;1.70;;
23206;SDS011;11773;52.570;13.052;2023-03-01T04:58:58;1.60;;;1.50;;
23206;SDS011;11773;52.570;13.052;2023-03-01T05:01:27;1.53;;;1.43;;
23206;SDS011;11773;52.570;13.052;2023-03-01T05:03:57;2.00;;;1.63;;
23206;SDS011;11773;52.570;13.052;2023-03-01T05:06:28;2.43;;;1.80;;
23206;SDS011;11773;52.570;13.052;2023-03-01T05:08:58;2.50;;;1.70;;
23206;SDS011;11773;52.570;13.052;2023-03-01T05:11:28;2.13;;;1.67;;
23206;SDS011;11773;52.570;13.052;2023-03-01T05:13:59;2.20;;;2.00;;
23206;SDS011;11773;52.570;13.052;2023-03-01T05:16:28;2.20;;;2.00;;
23206;SDS011;11773;52.570;13.052;2023-03-01T05:19:00;1.90;;;1.80;;
23206;SDS011;11773;52.570;13.052;2023-03-01T05:21:31;1.80;;;1.70;;
23206;SDS011;11773;52.570;13.052;2023-03-01T05:24:01;2.43;;;1.60;;
23206;SDS011;11773;52.570;13.052;2023-03-01T05:26:30;2.23;;;1.93;;
23206;SDS011;11773;52.570;13.052;2023-03-01T05:29:00;2.40;;;2.10;;
23206;SDS011;11773;52.570;13.052;2023-03-01T05:31:29;2.13;;;1.60;;
23206;SDS011;11773;52.570;13.052;2023-03-01T05:33:59;2.03;;;1.70;;
23206;SDS011;11773;52.570;13.052;2023-03-01T05:36:29;1.63;;;1.40;;
23206;SDS011;11773;52.570;13.052;2023-03-01T05:38:59;1.83;;;1.43;;
23206;SDS011;11773;52.570;13.052;2023-03-01T05:41:29;2.63;;;2.10;;
23206;SDS011;11773;52.570;13.052;2023-03-01T05:43:58;2.00;;;1.73;;
23206;SDS011;11773;52.570;13.052;2023-03-01T05:46:27;1.70;;;1.60;;
23206;SDS011;11773;52.570;13.052;2023-03-01T05:48:57;1.70;;;1.60;;
23206;SDS011;11773;52.570;13.052;2023-03-01T05:51:27;2.53;;;1.70;;
23206;SDS011;11773;52.570;13.052;2023-03-01T05:53:57;2.33;;;1.47;;
23206;SDS011;11773;52.570;13.052;2023-03-01T05:56:26;3.13;;;1.97;;
23206;SDS011;11773;52.570;13.052;2023-03-01T05:58:56;2.97;;;2.00;;
23206;SDS011;11773;52.570;13.052;2023-03-01T06:01:26;2.30;;;1.73;;
23206;SDS011;11773;52.570;13.052;2023-03-01T06:03:56;2.07;;;1.80;;
23206;SDS011;11773;52.570;13.052;2023-03-01T06:06:25;1.90;;;1.53;;
23206;SDS011;11773;52.570;13.052;2023-03-01T06:08:55;2.20;;;2.00;;
23206;SDS011;11773;52.570;13.052;2023-03-01T06:11:25;2.73;;;1.87;;
23206;SDS011;11773;52.570;13.052;2023-03-01T06:13:54;2.00;;;1.80;;
23206;SDS011;11773;52.570;13.052;2023-03-01T06:16:24;1.97;;;1.70;;
23206;SDS011;11773;52.570;13.052;2023-03-01T06:18:53;2.47;;;2.07;;
23206;SDS011;11773;52.570;13.052;2023-03-01T06:21:23;2.20;;;2.00;;
23206;SDS011;11773;52.570;13.052;2023-03-01T06:23:52;3.23;;;2.30;;
23206;SDS011;11773;52.570;13.052;2023-03-01T06:26:21;3.67;;;2.57;;
23206;SDS011;11773;52.570;13.052;2023-03-01T06:28:51;3.20;;;2.50;;
23206;SDS011;11773;52.570;13.052;2023-03-01T06:31:20;3.90;;;2.80;;
23206;SDS011;11773;52.570;13.052;2023-03-01T06:33:50;2.73;;;2.27;;
23206;SDS011;11773;52.570;13.052;2023-03-01T06:36:19;2.20;;;2.00;;
23206;SDS011;11773;52.570;13.052;2023-03-01T06:38:49;2.83;;;2.13;;
23206;SDS011;11773;52.570;13.052;2023-03-01T06:41:18;3.00;;;2.13;;
23206;SDS011;11773;52.570;13.052;2023-03-01T06:43:48;2.50;;;1.50;;
23206;SDS011;11773;52.570;13.052;2023-03-01T06:46:17;2.37;;;1.97;;
23206;SDS011;11773;52.570;13.052;2023-03-01T06:48:47;1.70;;;1.33;;
23206;SDS011;11773;52.570;13.052;2023-03-01T06:51:18;1.20;;;1.10;;
23206;SDS011;11773;52.570;13.052;2023-03-01T06:53:47;1.33;;;1.20;;
23206;SDS011;11773;52.570;13.052;2023-03-01T06:56:17;2.03;;;1.37;;
23206;SDS011;11773;52.570;13.052;2023-03-01T06:58:46;1.77;;;1.47;;
23206;SDS011;11773;52.570;13.052;2023-03-01T07:01:16;1.70;;;1.53;;
23206;SDS011;11773;52.570;13.052;2023-03-01T07:03:45;1.30;;;1.20;;
23206;SDS011;11773;52.570;13.052;2023-03-01T07:06:15;1.80;;;1.50;;
23206;SDS011;11773;52.570;13.052;2023-03-01T07:08:44;1.77;;;1.50;;
23206;SDS011;11773;52.570;13.052;2023-03-01T07:11:14;3.50;;;2.67;;
23206;SDS011;11773;52.570;13.052;2023-03-01T07:13:44;3.63;;;2.97;;
23206;SDS011;11773;52.570;13.052;2023-03-01T07:16:13;3.13;;;2.80;;
23206;SDS011;11773;52.570;13.052;2023-03-01T07:18:43;2.30;;;2.10;;
23206;SDS011;11773;52.570;13.052;2023-03-01T07:21:13;2.83;;;2.23;;
23206;SDS011;11773;52.570;13.052;2023-03-01T07:23:43;2.40;;;1.70;;
23206;SDS011;11773;52.570;13.052;2023-03-01T07:26:17;1.73;;;1.57;;
23206;SDS011;11773;52.570;13.052;2023-03-01T07:28:47;2.80;;;2.20;;
23206;SDS011;11773;52.570;13.052;2023-03-01T07:31:16;2.40;;;2.00;;
23206;SDS011;11773;52.570;13.052;2023-03-01T07:33:45;2.73;;;1.90;;
23206;SDS011;11773;52.570;13.052;2023-03-01T07:36:17;2.67;;;2.23;;
23206;SDS011;11773;52.570;13.052;2023-03-01T07:38:46;2.70;;;2.23;;
23206;SDS011;11773;52.570;13.052;2023-03-01T07:41:16;3.30;;;2.50;;
23206;SDS011;11773;52.570;13.052;2023-03-01T07:43:45;2.50;;;1.90;;
23206;SDS011;11773;52.570;13.052;2023-03-01T07:46:15;2.63;;;2.03;;
23206;SDS011;11773;52.570;13.052;2023-03-01T07:48:46;3.83;;;3.00;;
23206;SDS011;11773;52.570;13.052;2023-03-01T07:51:15;5.20;;;3.30;;
23206;SDS011;11773;52.570;13.052;2023-03-01T07:53:47;3.20;;;2.90;;
23206;SDS011;11773;52.570;13.052;2023-03-01T07:56:16;3.20;;;2.67;;
23206;SDS011;11773;52.570;13.052;2023-03-01T07:58:46;3.03;;;2.43;;
23206;SDS011;11773;52.570;13.052;2023-03-01T08:01:18;2.17;;;1.97;;
23206;SDS011;11773;52.570;13.052;2023-03-01T08:03:49;1.73;;;1.63;;
23206;SDS011;11773;52.570;13.052;2023-03-01T08:06:18;2.97;;;2.00;;
23206;SDS011;11773;52.570;13.052;2023-03-01T08:08:48;2.70;;;2.50;;
23206;SDS011;11773;52.570;13.052;2023-03-01T08:11:17;3.73;;;3.07;;
23206;SDS011;11773;52.570;13.052;2023-03-01T08:13:47;3.10;;;2.47;;
23206;SDS011;11773;52.570;13.052;2023-03-01T08:16:19;2.27;;;1.97;;
23206;SDS011;11773;52.570;13.052;2023-03-01T08:18:48;1.90;;;1.50;;
23206;SDS011;11773;52.570;13.052;2023-03-01T08:21:18;1.73;;;1.50;;
23206;SDS011;11773;52.570;13.052;2023-03-01T08:23:47;1.37;;;1.10;;
23206;SDS011;11773;52.570;13.052;2023-03-01T08:26:18;1.70;;;1.60;;
23206;SDS011;11773;52.570;13.052;2023-03-01T08:28:49;2.90;;;2.13;;
23206;SDS011;11773;52.570;13.052;2023-03-01T08:31:22;2.13;;;1.83;;
23206;SDS011;11773;52.570;13.052;2023-03-01T08:33:58;1.30;;;1.20;;
23206;SDS011;11773;52.570;13.052;2023-03-01T08:36:30;1.33;;;1.20;;
23206;SDS011;11773;52.570;13.052;2023-03-01T08:39:07;1.27;;;1.17;;
23206;SDS011;11773;52.570;13.052;2023-03-01T08:41:42;1.43;;;1.00;;
23206;SDS011;11773;52.570;13.052;2023-03-01T08:44:13;0.87;;;0.83;;
23206;SDS011;11773;52.570;13.052;2023-03-01T08:46:44;1.00;;;0.90;;
23206;SDS011;11773;52.570;13.052;2023-03-01T08:49:15;1.37;;;1.17;;
23206;SDS011;11773;52.570;13.052;2023-03-01T08:51:46;1.80;;;0.90;;
23206;SDS011;11773;52.570;13.052;2023-03-01T08:54:17;1.03;;;0.90;;
23206;SDS011;11773;52.570;13.052;2023-03-01T08:56:48;1.10;;;0.90;;
23206;SDS011;11773;52.570;13.052;2023-03-01T08:59:18;1.40;;;0.97;;
23206;SDS011;11773;52.570;13.052;2023-03-01T09:01:47;0.90;;;0.90;;
23206;SDS011;11773;52.570;13.052;2023-03-01T09:04:17;2.27;;;2.03;;
23206;SDS011;11773;52.570;13.052;2023-03-01T09:06:46;3.00;;;2.27;;
23206;SDS011;11773;52.570;13.052;2023-03-01T09:09:16;2.20;;;1.83;;
23206;SDS011;11773;52.570;13.052;2023-03-01T09:11:46;2.57;;;1.60;;
23206;SDS011;11773;52.570;13.052;2023-03-01T09:14:16;1.20;;;1.00;;
23206;SDS011;11773;52.570;13.052;2023-03-01T09:16:46;2.50;;;1.70;;
23206;SDS011;11773;52.570;13.052;2023-03-01T09:19:16;1.47;;;1.37;;
23206;SDS011;11773;52.570;13.052;2023-03-01T09:21:45;1.30;;;1.00;;
23206;SDS011;11773;52.570;13.052;2023-03-01T09:24:21;1.43;;;1.00;;
23206;SDS011;11773;52.570;13.052;2023-03-01T09:26:53;1.30;;;0.80;;
23206;SDS011;11773;52.570;13.052;2023-03-01T09:29:23;1.10;;;1.00;;
23206;SDS011;11773;52.570;13.052;2023-03-01T09:31:53;1.57;;;1.13;;
23206;SDS011;11773;52.570;13.052;2023-03-01T09:34:22;2.27;;;1.40;;
23206;SDS011;11773;52.570;13.052;2023-03-01T09:36:52;1.17;;;0.97;;
23206;SDS011;11773;52.570;13.052;2023-03-01T09:39:21;1.40;;;1.30;;
23206;SDS011;11773;52.570;13.052;2023-03-01T09:44:41;1.13;;;1.03;;
23206;SDS011;11773;52.570;13.052;2023-03-01T09:47:33;1.37;;;1.27;;
23206;SDS011;11773;52.570;13.052;2023-03-01T09:50:14;1.57;;;1.40;;
23206;SDS011;11773;52.570;13.052;2023-03-01T09:52:48;1.43;;;1.33;;
23206;SDS011;11773;52.570;13.052;2023-03-01T09:55:39;1.20;;;1.10;;
23206;SDS011;11773;52.570;13.052;2023-03-01T09:58:34;1.27;;;1.17;;
23206;SDS011;11773;52.570;13.052;2023-03-01T10:01:21;1.23;;;0.97;;
23206;SDS011;11773;52.570;13.052;2023-03-01T10:07:00;1.20;;;1.10;;
23206;SDS011;11773;52.570;13.052;2023-03-01T10:09:43;1.37;;;1.27;;
23206;SDS011;11773;52.570;13.052;2023-03-01T10:12:17;1.20;;;1.00;;
23206;SDS011;11773;52.570;13.052;2023-03-01T10:15:14;2.27;;;1.60;;
23206;SDS011;11773;52.570;13.052;2023-03-01T10:18:06;1.83;;;1.60;;
23206;SDS011;11773;52.570;13.052;2023-03-01T10:23:31;1.87;;;1.30;;
23206;SDS011;11773;52.570;13.052;2023-03-01T10:26:17;2.37;;;1.60;;
23206;SDS011;11773;52.570;13.052;2023-03-01T10:29:09;1.33;;;1.20;;
23206;SDS011;11773;52.570;13.052;2023-03-01T10:31:42;2.57;;;1.90;;
23206;SDS011;11773;52.570;13.052;2023-03-01T10:34:18;1.63;;;1.30;;
23206;SDS011;11773;52.570;13.052;2023-03-01T10:37:14;2.43;;;1.50;;
23206;SDS011;11773;52.570;13.052;2023-03-01T10:39:55;2.30;;;1.53;;
23206;SDS011;11773;52.570;13.052;2023-03-01T10:42:29;1.77;;;1.30;;
23206;SDS011;11773;52.570;13.052;2023-03-01T10:48:20;1.67;;;1.30;;
23206;SDS011;11773;52.570;13.052;2023-03-01T10:53:35;0.80;;;0.70;;
23206;SDS011;11773;52.570;13.052;2023-03-01T10:56:14;0.60;;;0.60;;
23206;SDS011;11773;52.570;13.052;2023-03-01T10:59:00;1.10;;;0.80;;
23206;SDS011;11773;52.570;13.052;2023-03-01T11:01:33;1.83;;;1.60;;
23206;SDS011;11773;52.570;13.052;2023-03-01T11:06:38;2.73;;;2.03;;
23206;SDS011;11773;52.570;13.052;2023-03-01T11:09:17;1.40;;;1.30;;
23206;SDS011;11773;52.570;13.052;2023-03-01T11:11:53;1.47;;;1.30;;
23206;SDS011;11773;52.570;13.052;2023-03-01T11:14:30;2.60;;;1.47;;
23206;SDS011;11773;52.570;13.052;2023-03-01T11:19:59;1.50;;;1.00;;
23206;SDS011;11773;52.570;13.052;2023-03-01T11:22:49;0.93;;;0.80;;
23206;SDS011;11773;52.570;13.052;2023-03-01T11:25:26;1.03;;;0.93;;
23206;SDS011;11773;52.570;13.052;2023-03-01T11:27:59;0.90;;;0.90;;
23206;SDS011;11773;52.570;13.052;2023-03-01T11:30:38;0.80;;;0.80;;
23206;SDS011;11773;52.570;13.052;2023-03-01T11:36:13;1.63;;;1.33;;
23206;SDS011;11773;52.570;13.052;2023-03-01T11:38:45;1.53;;;1.37;;
23206;SDS011;11773;52.570;13.052;2023-03-01T11:41:20;1.07;;;0.93;;
23206;SDS011;11773;52.570;13.052;2023-03-01T11:43:56;1.03;;;0.90;;
23206;SDS011;11773;52.570;13.052;2023-03-01T11:46:42;1.93;;;1.30;;
23206;SDS011;11773;52.570;13.052;2023-03-01T11:52:31;1.17;;;1.07;;
23206;SDS011;11773;52.570;13.052;2023-03-01T11:58:38;1.27;;;1.17;;
23206;SDS011;11773;52.570;13.052;2023-03-01T12:03:54;1.40;;;1.30;;
23206;SDS011;11773;52.570;13.052;2023-03-01T12:09:35;1.20;;;1.10;;
23206;SDS011;11773;52.570;13.052;2023-03-01T12:12:30;1.37;;;1.20;;
23206;SDS011;11773;52.570;13.052;2023-03-01T12:18:15;1.27;;;1.10;;
23206;SDS011;11773;52.570;13.052;2023-03-01T12:21:14;0.80;;;0.80;;
23206;SDS011;11773;52.570;13.052;2023-03-01T12:24:01;0.80;;;0.60;;
23206;SDS011;11773;52.570;13.052;2023-03-01T12:26:56;1.00;;;0.70;;
23206;SDS011;11773;52.570;13.052;2023-03-01T12:29:38;1.47;;;1.30;;
23206;SDS011;11773;52.570;13.052;2023-03-01T12:38:02;0.73;;;0.73;;
23206;SDS011;11773;52.570;13.052;2023-03-01T12:40:48;0.73;;;0.70;;
23206;SDS011;11773;52.570;13.052;2023-03-01T12:43:39;0.73;;;0.70;;
23206;SDS011;11773;52.570;13.052;2023-03-01T12:46:31;1.30;;;1.00;;
23206;SDS011;11773;52.570;13.052;2023-03-01T12:49:26;0.70;;;0.70;;
23206;SDS011;11773;52.570;13.052;2023-03-01T12:52:14;0.50;;;0.43;;
23206;SDS011;11773;52.570;13.052;2023-03-01T12:54:50;0.83;;;0.73;;
23206;SDS011;11773;52.570;13.052;2023-03-01T12:57:29;0.63;;;0.60;;
23206;SDS011;11773;52.570;13.052;2023-03-01T13:00:17;1.00;;;0.90;;
23206;SDS011;11773;52.570;13.052;2023-03-01T13:05:50;1.13;;;1.00;;
23206;SDS011;11773;52.570;13.052;2023-03-01T13:08:33;1.20;;;0.93;;
23206;SDS011;11773;52.570;13.052;2023-03-01T13:11:02;0.90;;;0.90;;
23206;SDS011;11773;52.570;13.052;2023-03-01T13:13:36;1.30;;;0.80;;
23206;SDS011;11773;52.570;13.052;2023-03-01T13:16:21;0.97;;;0.90;;
23206;SDS011;11773;52.570;13.052;2023-03-01T13:19:11;1.03;;;0.90;;
23206;SDS011;11773;52.570;13.052;2023-03-01T13:21:49;1.37;;;1.13;;
23206;SDS011;11773;52.570;13.052;2023-03-01T13:24:27;3.33;;;1.30;;
23206;SDS011;11773;52.570;13.052;2023-03-01T13:29:56;1.17;;;0.70;;
23206;SDS011;11773;52.570;13.052;2023-03-01T13:32:30;0.53;;;0.53;;
23206;SDS011;11773;52.570;13.052;2023-03-01T13:37:49;0.20;;;0.20;;
23206;SDS011;11773;52.570;13.052;2023-03-01T13:42:53;0.50;;;0.50;;
23206;SDS011;11773;52.570;13.052;2023-03-01T13:45:36;0.40;;;0.40;;
23206;SDS011;11773;52.570;13.052;2023-03-01T13:48:09;0.90;;;0.83;;
23206;SDS011;11773;52.570;13.052;2023-03-01T13:50:50;1.00;;;0.60;;
23206;SDS011;11773;52.570;13.052;2023-03-01T13:53:22;1.00;;;0.90;;
23206;SDS011;11773;52.570;13.052;2023-03-01T13:56:00;0.60;;;0.60;;
23206;SDS011;11773;52.570;13.052;2023-03-01T14:01:31;0.77;;;0.67;;
23206;SDS011;11773;52.570;13.052;2023-03-01T14:04:17;0.60;;;0.50;;
23206;SDS011;11773;52.570;13.052;2023-03-01T14:06:49;1.00;;;0.90;;
23206;SDS011;11773;52.570;13.052;2023-03-01T14:09:23;0.87;;;0.70;;
23206;SDS011;11773;52.570;13.052;2023-03-01T14:20:53;0.40;;;0.40;;
23206;SDS011;11773;52.570;13.052;2023-03-01T14:23:23;0.70;;;0.60;;
23206;SDS011;11773;52.570;13.052;2023-03-01T14:25:54;1.00;;;0.70;;
23206;SDS011;11773;52.570;13.052;2023-03-01T14:28:26;0.70;;;0.70;;
23206;SDS011;11773;52.570;13.052;2023-03-01T14:31:00;1.43;;;0.57;;
23206;SDS011;11773;52.570;13.052;2023-03-01T14:33:32;0.63;;;0.63;;
23206;SDS011;11773;52.570;13.052;2023-03-01T14:36:09;0.47;;;0.47;;
23206;SDS011;11773;52.570;13.052;2023-03-01T14:41:16;1.13;;;0.90;;
23206;SDS011;11773;52.570;13.052;2023-03-01T14:43:54;0.83;;;0.60;;
23206;SDS011;11773;52.570;13.052;2023-03-01T14:46:31;0.50;;;0.50;;
23206;SDS011;11773;52.570;13.052;2023-03-01T14:49:14;1.73;;;1.27;;
23206;SDS011;11773;52.570;13.052;2023-03-01T14:52:00;1.00;;;0.90;;
23206;SDS011;11773;52.570;13.052;2023-03-01T14:54:51;1.20;;;0.90;;
23206;SDS011;11773;52.570;13.052;2023-03-01T14:57:24;0.90;;;0.90;;
23206;SDS011;11773;52.570;13.052;2023-03-01T14:59:57;0.90;;;0.80;;
23206;SDS011;11773;52.570;13.052;2023-03-01T15:02:34;1.03;;;0.87;;
23206;SDS011;11773;52.570;13.052;2023-03-01T15:05:06;0.70;;;0.60;;
23206;SDS011;11773;52.570;13.052;2023-03-01T15:07:38;0.40;;;0.40;;
23206;SDS011;11773;52.570;13.052;2023-03-01T15:10:15;0.50;;;0.50;;
23206;SDS011;11773;52.570;13.052;2023-03-01T15:12:49;0.80;;;0.63;;
23206;SDS011;11773;52.570;13.052;2023-03-01T15:18:04;0.87;;;0.70;;
23206;SDS011;11773;52.570;13.052;2023-03-01T15:20:48;0.80;;;0.60;;
23206;SDS011;11773;52.570;13.052;2023-03-01T15:23:27;0.50;;;0.50;;
23206;SDS011;11773;52.570;13.052;2023-03-01T15:25:58;0.67;;;0.60;;
23206;SDS011;11773;52.570;13.052;2023-03-01T15:28:28;1.13;;;0.80;;
23206;SDS011;11773;52.570;13.052;2023-03-01T15:31:12;1.90;;;0.97;;
23206;SDS011;11773;52.570;13.052;2023-03-01T15:33:53;1.47;;;0.60;;
23206;SDS011;11773;52.570;13.052;2023-03-01T15:36:53;1.43;;;0.70;;
23206;SDS011;11773;52.570;13.052;2023-03-01T15:39:36;1.10;;;0.90;;
23206;SDS011;11773;52.570;13.052;2023-03-01T15:42:53;3.23;;;2.70;;
23206;SDS011;11773;52.570;13.052;2023-03-01T15:44:43;2.50;;;1.63;;
23206;SDS011;11773;52.570;13.052;2023-03-01T15:47:29;1.80;;;1.60;;
23206;SDS011;11773;52.570;13.052;2023-03-01T15:49:58;1.73;;;1.50;;
23206;SDS011;11773;52.570;13.052;2023-03-01T15:52:34;1.03;;;0.93;;
23206;SDS011;11773;52.570;13.052;2023-03-01T15:55:06;1.27;;;0.77;;
23206;SDS011;11773;52.570;13.052;2023-03-01T15:58:00;0.90;;;0.87;;
23206;SDS011;11773;52.570;13.052;2023-03-01T16:00:35;1.07;;;0.70;;
23206;SDS011;11773;52.570;13.052;2023-03-01T16:03:08;0.50;;;0.50;;
23206;SDS011;11773;52.570;13.052;2023-03-01T16:05:41;0.73;;;0.67;;
23206;SDS011;11773;52.570;13.052;2023-03-01T16:08:10;0.43;;;0.43;;
23206;SDS011;11773;52.570;13.052;2023-03-01T16:10:40;0.90;;;0.60;;
23206;SDS011;11773;52.570;13.052;2023-03-01T16:13:11;0.67;;;0.43;;
23206;SDS011;11773;52.570;13.052;2023-03-01T16:15:41;0.67;;;0.50;;
23206;SDS011;11773;52.570;13.052;2023-03-01T16:18:10;0.43;;;0.43;;
23206;SDS011;11773;52.570;13.052;2023-03-01T16:20:40;1.07;;;0.50;;
23206;SDS011;11773;52.570;13.052;2023-03-01T16:23:09;0.50;;;0.50;;
23206;SDS011;11773;52.570;13.052;2023-03-01T16:25:41;0.60;;;0.60;;
23206;SDS011;11773;52.570;13.052;2023-03-01T16:28:10;1.97;;;0.80;;
23206;SDS011;11773;52.570;13.052;2023-03-01T16:30:45;0.40;;;0.40;;
23206;SDS011;11773;52.570;13.052;2023-03-01T16:33:18;0.80;;;0.50;;
23206;SDS011;11773;52.570;13.052;2023-03-01T16:35:49;0.63;;;0.50;;
23206;SDS011;11773;52.570;13.052;2023-03-01T16:38:19;1.00;;;0.70;;